Time;durP1;ratioP1;P1;durP2;ratioP2;P2;SDS_P1;SDS_P2;PMS_P1;PMS_P2;Temp;Humidity;BMP_temperature;BMP_pressure;BME280_temperature;BME280_humidity;BME280_pressure;Samples;Min_cycle;Max_cycle;Signal;HPM_P1;HPM_P2
2023/03/11 00:00:37;;;;;;;4.53;1.45;;;1.00;99.90;;;;;;4970887;28;20058;-85
2023/03/11 00:03:05;;;;;;;5.97;1.58;;;1.00;99.90;;;;;;5012484;28;20030;-86
2023/03/11 00:05:36;;;;;;;6.00;1.60;;;1.00;99.90;;;;;;4981458;28;20399;-85
2023/03/11 00:08:06;;;;;;;6.45;2.47;;;1.00;99.90;;;;;;4991774;28;20097;-85
2023/03/11 00:10:35;;;;;;;7.88;1.65;;;1.00;99.90;;;;;;4977291;28;20818;-85
2023/03/11 00:13:03;;;;;;;10.38;1.77;;;1.00;99.90;;;;;;4988133;28;20439;-85
2023/03/11 00:15:29;;;;;;;6.55;1.77;;;0.90;99.90;;;;;;4997373;28;20386;-86
2023/03/11 00:17:58;;;;;;;5.85;1.27;;;1.00;99.90;;;;;;4997624;28;20177;-86
2023/03/11 00:20:30;;;;;;;7.22;1.48;;;1.10;99.90;;;;;;4994897;28;20058;-86
2023/03/11 00:22:57;;;;;;;6.05;1.50;;;1.00;99.90;;;;;;5000962;28;20083;-85
2023/03/11 00:25:27;;;;;;;6.25;1.40;;;1.00;99.90;;;;;;4983108;28;20035;-85
2023/03/11 00:27:53;;;;;;;3.17;1.30;;;1.00;99.90;;;;;;4991277;28;20138;-86
2023/03/11 00:30:20;;;;;;;4.43;1.50;;;0.90;99.90;;;;;;4998350;28;20054;-86
2023/03/11 00:32:48;;;;;;;4.05;1.13;;;0.90;99.90;;;;;;5055231;28;20557;-86
2023/03/11 00:35:17;;;;;;;3.03;1.33;;;0.90;99.90;;;;;;4976453;28;20125;-86
2023/03/11 00:37:44;;;;;;;5.43;1.10;;;0.90;99.90;;;;;;5061847;28;20069;-86
2023/03/11 00:40:15;;;;;;;7.47;1.40;;;0.90;99.90;;;;;;5000177;28;20512;-85
2023/03/11 00:42:41;;;;;;;5.50;1.50;;;0.80;99.90;;;;;;5040872;28;20420;-86
2023/03/11 00:45:07;;;;;;;4.60;1.25;;;0.80;99.90;;;;;;4965166;28;20040;-85
2023/03/11 00:47:32;;;;;;;5.72;1.50;;;0.80;99.90;;;;;;4981110;28;20205;-85
2023/03/11 00:49:58;;;;;;;5.18;2.17;;;0.80;99.90;;;;;;4961975;28;20474;-85
2023/03/11 00:52:24;;;;;;;7.75;1.55;;;0.80;99.90;;;;;;4990270;28;20042;-85
2023/03/11 00:54:50;;;;;;;9.32;1.90;;;0.80;99.90;;;;;;4987549;28;20061;-85
2023/03/11 00:57:16;;;;;;;8.05;1.50;;;0.70;99.90;;;;;;5057726;28;20038;-85
2023/03/11 00:59:41;;;;;;;4.53;1.48;;;0.70;99.90;;;;;;4978184;28;20288;-85
2023/03/11 01:02:07;;;;;;;5.95;1.40;;;0.80;99.90;;;;;;4973663;28;20158;-86
2023/03/11 01:04:33;;;;;;;8.35;1.55;;;0.80;99.90;;;;;;4973498;28;20034;-86
2023/03/11 01:06:58;;;;;;;4.43;1.30;;;0.80;99.90;;;;;;4973635;28;20034;-86
2023/03/11 01:09:24;;;;;;;8.90;1.40;;;0.70;99.90;;;;;;4982127;28;20160;-86
2023/03/11 01:11:50;;;;;;;4.88;1.30;;;0.70;99.90;;;;;;4976734;28;20295;-86
2023/03/11 01:14:16;;;;;;;6.45;1.13;;;0.70;99.90;;;;;;4966798;28;20373;-85
2023/03/11 01:16:42;;;;;;;5.82;1.20;;;0.70;99.90;;;;;;4981863;28;20131;-85
2023/03/11 01:19:08;;;;;;;6.70;1.35;;;0.70;99.90;;;;;;5000733;28;20428;-85
2023/03/11 01:21:33;;;;;;;6.18;1.50;;;0.70;99.90;;;;;;5073171;28;20063;-85
2023/03/11 01:23:59;;;;;;;3.95;1.38;;;0.70;99.90;;;;;;4992414;28;20035;-84
2023/03/11 01:26:25;;;;;;;4.43;1.08;;;0.70;99.90;;;;;;4972512;28;20033;-85
2023/03/11 01:28:50;;;;;;;5.20;1.30;;;0.60;99.90;;;;;;4966186;28;20053;-85
2023/03/11 01:31:18;;;;;;;5.13;1.10;;;0.70;99.90;;;;;;4969603;28;20071;-85
2023/03/11 01:33:43;;;;;;;6.70;1.17;;;0.60;99.90;;;;;;4983662;28;20291;-85
2023/03/11 01:36:09;;;;;;;8.15;1.70;;;0.60;99.90;;;;;;4967495;28;20265;-85
2023/03/11 01:38:35;;;;;;;4.95;1.38;;;0.50;99.90;;;;;;4999156;28;20379;-85
2023/03/11 01:41:00;;;;;;;2.95;1.17;;;0.50;99.90;;;;;;4982520;28;20125;-85
2023/03/11 01:43:44;;;;;;;3.60;1.23;;;0.50;99.90;;;;;;4967161;28;20279;-85
2023/03/11 01:46:26;;;;;;;6.15;1.30;;;0.50;99.90;;;;;;4986169;28;20323;-85
2023/03/11 01:48:55;;;;;;;5.07;1.20;;;0.40;99.90;;;;;;5003703;28;20486;-85
2023/03/11 01:51:30;;;;;;;5.82;1.35;;;0.40;99.90;;;;;;4990465;28;20156;-85
2023/03/11 01:54:04;;;;;;;5.80;1.33;;;0.40;99.90;;;;;;4973689;28;20103;-85
2023/03/11 01:56:30;;;;;;;5.30;1.50;;;0.30;99.90;;;;;;4995610;28;20114;-85
2023/03/11 01:58:57;;;;;;;3.85;1.33;;;0.30;99.90;;;;;;4988062;28;20046;-85
2023/03/11 02:01:26;;;;;;;5.65;1.48;;;0.30;99.90;;;;;;4968794;28;20044;-86
2023/03/11 02:03:53;;;;;;;5.13;1.42;;;0.30;99.90;;;;;;5055873;28;20232;-86
2023/03/11 02:06:22;;;;;;;5.03;1.08;;;0.20;99.90;;;;;;4960825;28;20039;-85
2023/03/11 02:08:48;;;;;;;5.00;1.20;;;0.30;99.90;;;;;;4980969;28;20035;-85
2023/03/11 02:11:28;;;;;;;3.40;1.50;;;0.30;99.90;;;;;;5005848;28;20111;-85
2023/03/11 02:13:58;;;;;;;4.95;1.67;;;0.20;99.90;;;;;;4983634;28;20431;-85
2023/03/11 02:16:24;;;;;;;3.67;1.10;;;0.20;99.90;;;;;;5057992;28;20036;-85
2023/03/11 02:18:50;;;;;;;6.88;1.45;;;0.10;99.90;;;;;;4965823;28;20069;-85
2023/03/11 02:21:30;;;;;;;3.00;1.02;;;0.10;99.90;;;;;;4990196;28;20050;-85
2023/03/11 02:24:22;;;;;;;5.78;1.15;;;-0.10;99.90;;;;;;5001656;28;20039;-85
2023/03/11 02:26:54;;;;;;;4.45;1.55;;;-0.10;99.90;;;;;;4972095;28;20370;-86
2023/03/11 02:29:21;;;;;;;3.75;1.30;;;-0.10;99.90;;;;;;4998761;28;20618;-85
2023/03/11 02:31:48;;;;;;;6.93;1.60;;;-0.10;99.90;;;;;;4982093;28;20129;-85
2023/03/11 02:34:36;;;;;;;5.40;1.50;;;-0.10;99.90;;;;;;5001045;28;20518;-85
2023/03/11 02:37:10;;;;;;;3.85;1.10;;;-0.20;99.90;;;;;;4967014;28;20126;-85
2023/03/11 02:39:48;;;;;;;3.97;1.27;;;-0.30;99.90;;;;;;5057201;28;20074;-86
2023/03/11 02:42:24;;;;;;;5.60;1.38;;;-0.40;99.90;;;;;;4979921;28;20047;-85
2023/03/11 02:44:55;;;;;;;4.07;1.50;;;-0.50;99.90;;;;;;4975821;28;20042;-84
2023/03/11 02:47:21;;;;;;;5.72;1.45;;;-0.60;99.90;;;;;;5002145;28;20519;-85
2023/03/11 02:49:48;;;;;;;3.80;1.35;;;-0.70;99.90;;;;;;4974554;28;20050;-85
2023/03/11 02:52:13;;;;;;;3.75;1.70;;;-0.70;99.90;;;;;;4965160;28;20404;-86
2023/03/11 02:54:39;;;;;;;5.90;1.70;;;-0.60;99.90;;;;;;5060732;28;20057;-86
2023/03/11 02:57:05;;;;;;;4.13;1.52;;;-0.70;99.90;;;;;;4983528;28;20442;-86
2023/03/11 02:59:30;;;;;;;5.72;2.05;;;-0.60;99.90;;;;;;5010735;28;20036;-86
2023/03/11 03:01:59;;;;;;;7.85;1.50;;;-0.60;99.90;;;;;;4987594;28;20071;-86
2023/03/11 03:04:28;;;;;;;7.38;1.63;;;-0.60;99.90;;;;;;4989521;28;20404;-85
2023/03/11 03:06:54;;;;;;;5.15;1.48;;;-0.60;99.90;;;;;;4986786;28;20126;-86
2023/03/11 03:09:20;;;;;;;4.93;1.50;;;-0.60;99.90;;;;;;5009509;28;20045;-87
2023/03/11 03:11:46;;;;;;;5.10;1.63;;;-0.60;99.90;;;;;;4980917;28;20039;-86
2023/03/11 03:14:14;;;;;;;9.63;2.05;;;-0.70;99.90;;;;;;4979010;28;20066;-85
2023/03/11 03:16:40;;;;;;;6.03;1.70;;;-0.70;99.90;;;;;;4980272;28;20125;-87
2023/03/11 03:19:06;;;;;;;3.08;1.70;;;-0.80;99.90;;;;;;4988019;28;20030;-86
2023/03/11 03:21:31;;;;;;;5.10;1.38;;;-0.90;99.90;;;;;;4978613;28;20038;-86
2023/03/11 03:23:57;;;;;;;5.03;1.80;;;-0.90;99.90;;;;;;5001493;28;20036;-86
2023/03/11 03:26:23;;;;;;;6.32;1.85;;;-1.00;99.90;;;;;;4985780;28;20046;-85
2023/03/11 03:28:49;;;;;;;3.80;1.48;;;-1.00;99.90;;;;;;4978971;28;20042;-86
2023/03/11 03:31:15;;;;;;;5.93;1.60;;;-1.10;99.90;;;;;;4999417;28;20088;-86
2023/03/11 03:33:41;;;;;;;4.65;1.95;;;-1.20;99.90;;;;;;4987815;28;20094;-86
2023/03/11 03:36:12;;;;;;;6.00;2.22;;;-1.20;99.90;;;;;;4984286;28;20501;-86
2023/03/11 03:38:38;;;;;;;5.03;2.60;;;-1.30;99.90;;;;;;5080383;27;20436;-85
2023/03/11 03:41:04;;;;;;;7.07;2.67;;;-1.30;99.90;;;;;;4982187;28;20040;-86
2023/03/11 03:43:30;;;;;;;5.88;2.45;;;-1.30;99.90;;;;;;5010258;28;20036;-86
2023/03/11 03:46:02;;;;;;;5.43;2.83;;;-1.40;99.90;;;;;;5003004;28;20492;-86
2023/03/11 03:48:27;;;;;;;6.60;3.20;;;-1.50;99.90;;;;;;4977243;28;20047;-86
2023/03/11 03:50:53;;;;;;;8.10;3.17;;;-1.60;99.90;;;;;;4971632;28;20042;-86
2023/03/11 03:53:19;;;;;;;6.45;3.25;;;-1.60;99.90;;;;;;5013639;28;20036;-86
2023/03/11 03:55:45;;;;;;;5.82;3.13;;;-1.60;99.90;;;;;;4981269;28;20339;-86
2023/03/11 03:58:11;;;;;;;8.95;4.05;;;-1.60;99.90;;;;;;5010767;28;20449;-86
2023/03/11 04:00:38;;;;;;;10.05;3.20;;;-1.60;99.90;;;;;;4974108;28;20401;-86
2023/03/11 04:03:04;;;;;;;7.15;2.80;;;-1.70;99.90;;;;;;5043593;28;20050;-86
2023/03/11 04:05:30;;;;;;;5.47;2.70;;;-1.80;99.90;;;;;;4995644;28;20430;-86
2023/03/11 04:07:56;;;;;;;9.15;2.28;;;-1.80;99.90;;;;;;4977979;28;20035;-86
2023/03/11 04:10:22;;;;;;;9.73;2.05;;;-1.80;99.90;;;;;;4977820;28;20054;-87
2023/03/11 04:12:47;;;;;;;10.23;2.10;;;-1.80;99.90;;;;;;4982665;28;20461;-87
2023/03/11 04:15:13;;;;;;;5.72;2.00;;;-1.80;99.90;;;;;;4968039;28;20042;-86
2023/03/11 04:17:39;;;;;;;8.32;2.15;;;-1.80;99.90;;;;;;4973097;28;20053;-86
2023/03/11 04:20:09;;;;;;;4.05;1.88;;;-1.90;99.90;;;;;;4980332;28;20045;-86
2023/03/11 04:22:34;;;;;;;5.68;1.95;;;-1.90;99.90;;;;;;4991671;28;20071;-86
2023/03/11 04:25:01;;;;;;;5.70;1.50;;;-1.90;99.90;;;;;;4980086;28;20039;-86
2023/03/11 04:27:29;;;;;;;3.17;1.60;;;-1.90;99.90;;;;;;4981167;28;20078;-87
2023/03/11 04:29:55;;;;;;;3.15;1.80;;;-2.10;99.90;;;;;;4989635;28;20057;-86
2023/03/11 04:32:23;;;;;;;4.82;1.80;;;-2.20;99.90;;;;;;4974717;28;20422;-87
2023/03/11 04:34:49;;;;;;;5.63;2.05;;;-2.20;99.90;;;;;;4986411;28;20039;-86
2023/03/11 04:37:15;;;;;;;4.90;1.80;;;-2.20;99.90;;;;;;4983942;28;20516;-87
2023/03/11 04:39:41;;;;;;;4.53;1.60;;;-2.20;99.90;;;;;;4982096;28;20040;-87
2023/03/11 04:42:06;;;;;;;9.32;1.90;;;-2.20;99.90;;;;;;4991382;28;20563;-88
2023/03/11 04:44:34;;;;;;;5.20;1.60;;;-2.20;99.90;;;;;;4981447;28;20438;-87
2023/03/11 04:47:03;;;;;;;7.82;2.00;;;-2.20;99.90;;;;;;4987116;28;20532;-86
2023/03/11 04:49:29;;;;;;;6.05;1.63;;;-2.10;99.90;;;;;;5001518;28;20042;-87
2023/03/11 04:51:55;;;;;;;4.88;1.95;;;-2.20;99.90;;;;;;4986596;28;20046;-87
2023/03/11 04:54:21;;;;;;;5.25;1.67;;;-2.30;99.90;;;;;;4987719;28;20524;-88
2023/03/11 04:56:47;;;;;;;6.05;1.90;;;-2.40;99.90;;;;;;4997981;28;20073;-88
2023/03/11 04:59:12;;;;;;;3.63;1.73;;;-2.30;99.90;;;;;;4997276;28;20064;-88
2023/03/11 05:01:38;;;;;;;5.05;1.70;;;-2.30;99.90;;;;;;5025103;28;20309;-89
2023/03/11 05:04:04;;;;;;;4.65;1.73;;;-2.30;99.90;;;;;;4993337;28;20075;-88
2023/03/11 05:06:30;;;;;;;5.25;1.75;;;-2.30;99.90;;;;;;5009962;28;20406;-88
2023/03/11 05:08:56;;;;;;;3.85;1.60;;;-2.40;99.90;;;;;;4976777;28;20099;-89
2023/03/11 05:11:21;;;;;;;6.38;2.15;;;-2.40;99.90;;;;;;5002114;28;20034;-88
2023/03/11 05:13:47;;;;;;;8.23;1.98;;;-2.50;99.90;;;;;;4964955;28;20034;-88
2023/03/11 05:16:13;;;;;;;5.85;1.80;;;-2.50;99.90;;;;;;4990339;28;20105;-88
2023/03/11 05:18:38;;;;;;;3.33;1.67;;;-2.50;99.90;;;;;;5018226;28;20049;-87
2023/03/11 05:21:04;;;;;;;8.10;2.10;;;-2.50;99.90;;;;;;4992558;28;20049;-89
2023/03/11 05:23:30;;;;;;;5.75;1.73;;;-2.60;99.90;;;;;;4977244;28;20045;-88
2023/03/11 05:25:59;;;;;;;10.07;2.17;;;-2.70;99.90;;;;;;4987939;28;20034;-89
2023/03/11 05:28:24;;;;;;;5.72;1.85;;;-2.70;99.90;;;;;;4974990;28;20605;-88
2023/03/11 05:30:50;;;;;;;6.80;2.00;;;-2.60;99.90;;;;;;4978423;28;20498;-88
2023/03/11 05:33:18;;;;;;;6.18;1.75;;;-2.70;99.90;;;;;;4988496;28;20032;-89
2023/03/11 05:35:44;;;;;;;9.55;2.45;;;-2.70;99.90;;;;;;5000895;28;22074;-88
2023/03/11 05:38:09;;;;;;;8.07;2.00;;;-2.70;99.90;;;;;;4995421;28;20065;-89
2023/03/11 05:40:35;;;;;;;4.70;1.70;;;-2.80;99.90;;;;;;4972569;28;20042;-89
2023/03/11 05:43:01;;;;;;;5.05;1.95;;;-2.70;99.90;;;;;;4975502;28;20099;-90
2023/03/11 05:45:26;;;;;;;4.38;1.95;;;-2.80;99.90;;;;;;4987684;28;20047;-88
2023/03/11 05:47:52;;;;;;;8.63;2.00;;;-2.70;99.90;;;;;;4976184;28;20306;-88
2023/03/11 05:50:18;;;;;;;5.55;2.13;;;-2.70;99.90;;;;;;4983940;28;20066;-89
2023/03/11 05:52:43;;;;;;;7.13;2.38;;;-2.70;99.90;;;;;;5001041;28;20046;-88
2023/03/11 05:55:11;;;;;;;6.78;2.60;;;-2.70;99.90;;;;;;4981791;28;20066;-89
2023/03/11 05:57:38;;;;;;;5.47;2.45;;;-2.70;99.90;;;;;;4991197;28;20042;-89
2023/03/11 06:00:10;;;;;;;4.85;2.47;;;-2.80;99.90;;;;;;4995418;28;20061;-88
2023/03/11 06:02:36;;;;;;;9.25;2.70;;;-2.70;99.90;;;;;;4985116;28;20076;-88
2023/03/11 06:05:02;;;;;;;8.48;2.58;;;-2.80;99.90;;;;;;4980692;28;20074;-88
2023/03/11 06:07:28;;;;;;;9.60;2.70;;;-2.70;99.90;;;;;;4984858;28;20530;-88
2023/03/11 06:09:53;;;;;;;5.88;2.38;;;-2.70;99.90;;;;;;4984692;28;20152;-89
2023/03/11 06:12:19;;;;;;;10.82;2.78;;;-2.80;99.90;;;;;;4997356;28;20050;-88
2023/03/11 06:14:45;;;;;;;6.72;2.28;;;-2.70;99.90;;;;;;4986419;28;20405;-89
2023/03/11 06:17:10;;;;;;;4.85;2.30;;;-2.70;99.90;;;;;;5000765;28;20074;-89
2023/03/11 06:19:36;;;;;;;6.57;2.72;;;-2.70;99.90;;;;;;5008639;28;20421;-89
2023/03/11 06:22:02;;;;;;;7.10;2.40;;;-2.70;99.90;;;;;;4985855;28;20766;-89
2023/03/11 06:24:27;;;;;;;6.00;2.40;;;-2.70;99.90;;;;;;4998950;28;20103;-90
2023/03/11 06:26:53;;;;;;;8.88;2.53;;;-2.60;99.90;;;;;;4980618;28;20486;-91
2023/03/11 06:29:23;;;;;;;5.35;2.33;;;-2.60;99.90;;;;;;4981843;28;20126;-90
2023/03/11 06:31:56;;;;;;;5.07;2.15;;;-2.60;99.90;;;;;;4983658;28;20325;-89
2023/03/11 06:34:22;;;;;;;5.95;2.33;;;-2.50;99.90;;;;;;4984683;28;20046;-90
2023/03/11 06:36:48;;;;;;;6.28;2.28;;;-2.40;99.90;;;;;;4979459;28;20145;-91
2023/03/11 06:39:14;;;;;;;6.22;2.45;;;-2.40;99.90;;;;;;4977748;28;20080;-90
2023/03/11 06:41:41;;;;;;;8.15;2.40;;;-2.40;99.90;;;;;;4978012;28;20126;-89
2023/03/11 06:44:09;;;;;;;6.85;2.40;;;-2.30;99.90;;;;;;4977422;28;20034;-90
2023/03/11 06:46:35;;;;;;;5.13;2.38;;;-2.30;99.90;;;;;;5044768;28;20141;-89
2023/03/11 06:49:01;;;;;;;4.70;2.20;;;-2.20;99.90;;;;;;4997923;28;20488;-89
2023/03/11 06:51:30;;;;;;;8.27;2.10;;;-2.20;99.90;;;;;;4990759;28;20084;-90
2023/03/11 06:53:55;;;;;;;9.60;2.38;;;-2.10;99.90;;;;;;4990100;28;20627;-89
2023/03/11 06:56:25;;;;;;;7.22;2.30;;;-2.00;99.90;;;;;;5003563;28;20042;-90
2023/03/11 06:58:52;;;;;;;6.55;2.38;;;-1.90;99.90;;;;;;4976759;28;20308;-90
2023/03/11 07:01:26;;;;;;;5.10;2.50;;;-1.80;99.90;;;;;;4986558;28;20038;-91
2023/03/11 07:03:53;;;;;;;3.83;2.00;;;-1.80;99.90;;;;;;5002515;28;20572;-91
2023/03/11 07:06:22;;;;;;;5.28;2.03;;;-1.70;99.90;;;;;;4982592;28;20058;-90
2023/03/11 07:08:49;;;;;;;4.88;1.90;;;-1.70;99.90;;;;;;4984905;28;20103;-91
2023/03/11 07:11:23;;;;;;;4.93;1.95;;;-1.70;99.90;;;;;;5001473;28;20477;-90
2023/03/11 07:13:49;;;;;;;3.38;1.75;;;-1.50;99.90;;;;;;4977953;28;20095;-91
2023/03/11 07:16:29;;;;;;;7.20;2.20;;;-1.50;99.90;;;;;;4985392;28;20080;-91
2023/03/11 07:18:57;;;;;;;4.40;1.77;;;-1.50;99.90;;;;;;5009001;28;20126;-91
2023/03/11 07:21:26;;;;;;;5.30;1.95;;;-1.40;99.90;;;;;;4996290;28;20496;-91
2023/03/11 07:23:53;;;;;;;8.77;1.83;;;-1.40;99.90;;;;;;4998416;28;20156;-91
2023/03/11 07:26:26;;;;;;;4.55;2.00;;;-1.30;99.90;;;;;;4982751;28;20413;-91
2023/03/11 07:28:53;;;;;;;4.95;2.15;;;-1.20;99.90;;;;;;4980872;28;20188;-92
2023/03/11 07:31:30;;;;;;;5.85;2.20;;;-1.20;99.90;;;;;;5052229;28;20333;-92
2023/03/11 07:34:01;;;;;;;3.95;1.75;;;-1.10;99.90;;;;;;4989892;28;20468;-94
2023/03/11 07:36:28;;;;;;;6.97;2.03;;;-1.00;99.90;;;;;;5005552;28;20051;-92
2023/03/11 07:38:58;;;;;;;3.67;1.77;;;-1.00;99.90;;;;;;5002066;28;20269;-91
2023/03/11 07:41:27;;;;;;;5.57;1.95;;;-1.00;99.90;;;;;;4982746;28;20409;-92
2023/03/11 07:43:55;;;;;;;4.68;1.92;;;-0.90;99.90;;;;;;4987356;28;20084;-92
2023/03/11 07:46:22;;;;;;;6.90;1.75;;;-0.80;99.90;;;;;;5082119;27;20061;-92
2023/03/11 07:48:49;;;;;;;4.03;1.80;;;-0.80;99.90;;;;;;4999108;28;20026;-93
2023/03/11 07:51:18;;;;;;;5.88;1.80;;;-0.70;99.90;;;;;;4996195;28;20039;-91
2023/03/11 07:53:45;;;;;;;4.28;1.85;;;-0.60;99.90;;;;;;5001005;28;20032;-92
2023/03/11 07:56:12;;;;;;;6.00;2.00;;;-0.50;99.90;;;;;;5004758;28;20214;-91
2023/03/11 07:58:39;;;;;;;3.55;1.60;;;-0.50;99.90;;;;;;4984553;28;20057;-92
2023/03/11 08:01:10;;;;;;;3.65;1.77;;;-0.40;99.90;;;;;;5002878;28;20042;-90
2023/03/11 08:03:37;;;;;;;4.05;1.60;;;-0.30;99.90;;;;;;4979671;28;20783;-91
2023/03/11 08:06:12;;;;;;;3.47;1.63;;;-0.20;99.90;;;;;;5078304;28;20460;-92
2023/03/11 08:08:40;;;;;;;2.47;1.70;;;-0.10;99.90;;;;;;5065635;28;20591;-91
2023/03/11 08:11:06;;;;;;;6.18;2.83;;;0.10;99.90;;;;;;4996444;28;20070;-91
2023/03/11 08:13:32;;;;;;;6.57;1.83;;;0.10;99.90;;;;;;4980002;28;20038;-93
2023/03/11 08:15:58;;;;;;;7.60;2.58;;;0.20;99.90;;;;;;4989307;28;20294;-92
2023/03/11 08:18:24;;;;;;;6.00;1.88;;;0.30;99.90;;;;;;4990136;28;20040;-90
2023/03/11 08:20:49;;;;;;;8.65;2.60;;;0.40;99.90;;;;;;5067441;28;20107;-91
2023/03/11 08:23:15;;;;;;;3.10;1.70;;;0.50;99.90;;;;;;5006574;28;20277;-90
2023/03/11 08:25:44;;;;;;;6.22;1.90;;;0.60;99.90;;;;;;4982788;28;20093;-90
2023/03/11 08:28:10;;;;;;;3.88;1.83;;;0.80;99.90;;;;;;4991837;28;20030;-90
2023/03/11 08:30:36;;;;;;;3.75;1.75;;;0.90;99.90;;;;;;4975033;28;20127;-90
2023/03/11 08:33:02;;;;;;;6.85;1.80;;;1.00;99.90;;;;;;4983711;28;20042;-89
2023/03/11 08:35:28;;;;;;;2.30;1.38;;;1.00;99.90;;;;;;4979097;28;20042;-89
2023/03/11 08:37:54;;;;;;;9.10;1.65;;;1.20;99.90;;;;;;4993978;28;20070;-90
2023/03/11 08:40:19;;;;;;;5.57;1.55;;;1.30;99.90;;;;;;4988757;28;20077;-90
2023/03/11 08:42:45;;;;;;;3.92;1.58;;;1.40;99.90;;;;;;4990842;28;20046;-89
2023/03/11 08:45:11;;;;;;;5.53;1.50;;;1.50;99.90;;;;;;4990778;28;20049;-89
2023/03/11 08:47:37;;;;;;;3.05;1.60;;;1.60;99.90;;;;;;4977242;28;20043;-89
2023/03/11 08:50:15;;;;;;;5.03;1.40;;;1.80;99.90;;;;;;5000631;28;20093;-89
2023/03/11 08:52:41;;;;;;;5.30;1.60;;;1.90;99.90;;;;;;4979148;28;20379;-90
2023/03/11 08:55:15;;;;;;;3.17;1.40;;;2.10;99.90;;;;;;4990890;28;20051;-90
2023/03/11 08:57:41;;;;;;;6.95;1.30;;;2.20;99.90;;;;;;4984481;28;20040;-89
2023/03/11 09:00:09;;;;;;;3.58;1.80;;;2.30;99.90;;;;;;4983287;28;20048;-90
2023/03/11 09:02:35;;;;;;;4.00;1.42;;;2.50;99.90;;;;;;5076542;28;20042;-90
2023/03/11 09:05:00;;;;;;;7.13;1.45;;;2.50;99.90;;;;;;4995807;28;20043;-89
2023/03/11 09:07:26;;;;;;;5.95;1.40;;;2.60;99.90;;;;;;4981941;28;20027;-90
2023/03/11 09:09:53;;;;;;;4.68;1.50;;;2.70;99.90;;;;;;4994106;28;20662;-88
2023/03/11 09:12:26;;;;;;;2.58;1.25;;;2.80;99.90;;;;;;4989511;28;20119;-88
2023/03/11 09:14:53;;;;;;;6.95;1.92;;;2.90;99.90;;;;;;4983753;28;20561;-90
2023/03/11 09:17:19;;;;;;;6.53;1.80;;;3.00;99.90;;;;;;4993023;28;20035;-89
2023/03/11 09:19:45;;;;;;;6.07;1.60;;;3.10;99.90;;;;;;4991562;28;20046;-88
2023/03/11 09:22:10;;;;;;;3.80;1.52;;;3.40;99.90;;;;;;4988992;28;20515;-88
2023/03/11 09:24:39;;;;;;;8.43;1.75;;;3.60;99.90;;;;;;4976980;28;20035;-88
2023/03/11 09:27:07;;;;;;;6.03;1.65;;;3.70;99.90;;;;;;4973896;28;20269;-88
2023/03/11 09:29:33;;;;;;;4.18;1.73;;;3.80;99.90;;;;;;4976127;28;20415;-87
2023/03/11 09:31:59;;;;;;;7.05;2.13;;;4.10;99.90;;;;;;4982072;28;20040;-87
2023/03/11 09:34:24;;;;;;;5.00;1.80;;;4.20;99.90;;;;;;4975028;28;20036;-88
2023/03/11 09:36:50;;;;;;;6.47;1.50;;;4.30;99.90;;;;;;4980607;28;20085;-87
2023/03/11 09:39:17;;;;;;;6.90;1.88;;;4.40;99.90;;;;;;4993468;28;20033;-87
2023/03/11 09:41:53;;;;;;;6.32;1.90;;;4.60;99.90;;;;;;5001978;28;20119;-87
2023/03/11 09:44:41;;;;;;;5.38;1.65;;;4.70;99.90;;;;;;5060723;28;20143;-87
2023/03/11 09:47:33;;;;;;;4.78;1.88;;;4.80;99.90;;;;;;4988396;28;20042;-87
2023/03/11 09:50:03;;;;;;;5.78;1.77;;;4.90;99.90;;;;;;4990628;28;20521;-87
2023/03/11 09:52:48;;;;;;;6.72;1.65;;;5.00;99.90;;;;;;4983536;28;20039;-86
2023/03/11 09:55:36;;;;;;;7.43;1.67;;;5.00;99.90;;;;;;5079027;28;20510;-86
2023/03/11 09:58:09;;;;;;;3.70;1.80;;;5.20;99.90;;;;;;4997628;28;20427;-86
2023/03/11 10:00:35;;;;;;;4.32;1.80;;;5.30;99.90;;;;;;4996721;28;20047;-86
2023/03/11 10:03:11;;;;;;;5.25;1.70;;;5.30;99.90;;;;;;4997352;28;20959;-87
2023/03/11 10:05:38;;;;;;;5.63;1.90;;;5.60;99.90;;;;;;5001442;28;20451;-87
2023/03/11 10:08:42;;;;;;;4.10;1.30;;;5.40;99.90;;;;;;5076727;27;20591;-87
2023/03/11 10:11:43;;;;;;;5.82;1.70;;;5.40;99.90;;;;;;5067800;28;20036;-87
2023/03/11 10:14:15;;;;;;;4.97;1.95;;;5.50;99.90;;;;;;5061695;28;20050;-89
2023/03/11 10:17:11;;;;;;;4.25;1.90;;;5.60;99.90;;;;;;4978089;28;20853;-88
2023/03/11 10:19:47;;;;;;;6.50;1.77;;;5.60;99.90;;;;;;4972438;28;20422;-87
2023/03/11 10:22:31;;;;;;;5.07;2.08;;;5.70;99.90;;;;;;4987302;28;20223;-87
2023/03/11 10:25:20;;;;;;;5.47;2.10;;;5.90;99.90;;;;;;4972738;28;20191;-87
2023/03/11 10:27:54;;;;;;;11.38;2.25;;;6.00;99.90;;;;;;5060118;28;20030;-85
2023/03/11 10:30:25;;;;;;;3.45;1.80;;;6.30;99.90;;;;;;4973037;28;20052;-84
2023/03/11 10:33:12;;;;;;;13.55;2.10;;;6.20;99.90;;;;;;4967637;28;20462;-84
2023/03/11 10:35:44;;;;;;;4.57;1.77;;;6.40;99.90;;;;;;4970598;28;20034;-84
2023/03/11 10:38:29;;;;;;;7.45;1.73;;;6.30;99.90;;;;;;4964161;28;20038;-85
2023/03/11 10:40:59;;;;;;;5.85;1.95;;;6.30;99.90;;;;;;4978120;28;20590;-84
2023/03/11 10:43:40;;;;;;;3.22;1.77;;;6.20;99.90;;;;;;4960903;28;20043;-84
2023/03/11 10:46:22;;;;;;;3.55;1.73;;;6.60;99.90;;;;;;4968749;28;20034;-85
2023/03/11 10:48:48;;;;;;;7.32;1.92;;;6.60;99.90;;;;;;4986433;28;20512;-85
2023/03/11 10:51:21;;;;;;;5.88;1.80;;;6.70;99.90;;;;;;4981050;28;20038;-85
2023/03/11 10:54:03;;;;;;;6.07;1.80;;;6.70;99.90;;;;;;5058440;28;20130;-85
2023/03/11 10:56:32;;;;;;;6.35;1.67;;;6.70;99.90;;;;;;5054508;28;20041;-85
2023/03/11 10:58:58;;;;;;;3.80;1.80;;;6.80;99.90;;;;;;5075832;28;20048;-85
2023/03/11 11:01:27;;;;;;;5.57;2.15;;;6.80;99.90;;;;;;4968132;28;20170;-84
2023/03/11 11:03:54;;;;;;;2.60;1.70;;;7.00;99.90;;;;;;4980743;28;20469;-85
2023/03/11 11:06:27;;;;;;;6.30;2.20;;;6.90;99.90;;;;;;5061637;28;20671;-85
2023/03/11 11:09:20;;;;;;;5.60;2.10;;;6.90;99.90;;;;;;4966790;28;20046;-85
2023/03/11 11:12:04;;;;;;;6.38;1.63;;;6.90;99.90;;;;;;4984544;28;20038;-85
2023/03/11 11:14:43;;;;;;;3.65;2.22;;;7.00;99.90;;;;;;5055038;28;20115;-86
2023/03/11 11:17:16;;;;;;;10.25;2.38;;;7.00;99.90;;;;;;4966608;28;20042;-86
2023/03/11 11:19:45;;;;;;;6.68;2.20;;;6.70;99.30;;;;;;4972385;28;20123;-86
2023/03/11 11:22:16;;;;;;;6.07;1.98;;;6.90;99.90;;;;;;4981955;28;20038;-85
2023/03/11 11:24:47;;;;;;;8.25;2.53;;;6.90;1.00;;;;;;4969937;28;20355;-85
2023/03/11 11:27:20;;;;;;;4.35;1.80;;;6.80;1.00;;;;;;4966871;28;20031;-85
2023/03/11 11:30:01;;;;;;;6.30;2.00;;;6.90;99.90;;;;;;5076218;28;20786;-85
2023/03/11 11:32:26;;;;;;;5.65;1.70;;;7.20;42.30;;;;;;5041341;28;20852;-84
2023/03/11 11:35:19;;;;;;;3.53;1.67;;;7.10;99.90;;;;;;5079395;28;20123;-85
2023/03/11 11:37:49;;;;;;;2.78;1.35;;;7.10;99.90;;;;;;4975011;28;20074;-85
2023/03/11 11:40:15;;;;;;;3.83;1.75;;;7.40;99.90;;;;;;4975312;28;20045;-85
2023/03/11 11:43:11;;;;;;;5.03;1.70;;;7.40;99.90;;;;;;4958193;28;20030;-85
2023/03/11 11:45:53;;;;;;;2.95;1.23;;;7.40;1.00;;;;;;4980152;28;20064;-85
2023/03/11 11:48:42;;;;;;;3.05;1.48;;;7.40;99.90;;;;;;4976659;28;20042;-85
2023/03/11 11:51:27;;;;;;;4.18;1.65;;;7.80;99.90;;;;;;5059327;28;20063;-85
2023/03/11 11:54:10;;;;;;;4.45;1.52;;;7.80;99.90;;;;;;5058118;28;21065;-85
2023/03/11 11:56:35;;;;;;;3.25;1.40;;;7.70;99.90;;;;;;4965747;28;20036;-85
2023/03/11 11:59:01;;;;;;;7.03;2.13;;;7.70;12.30;;;;;;4961378;28;20627;-85
2023/03/11 12:01:46;;;;;;;4.38;1.33;;;7.60;99.90;;;;;;4973523;28;20045;-84
2023/03/11 12:04:33;;;;;;;8.07;1.50;;;7.30;99.30;;;;;;4977849;28;20031;-85
2023/03/11 12:07:14;;;;;;;5.65;1.52;;;7.50;99.90;;;;;;4962997;28;20614;-84
2023/03/11 12:09:58;;;;;;;6.55;1.50;;;6.90;41.00;;;;;;4961969;28;20116;-84
2023/03/11 12:12:39;;;;;;;2.92;1.30;;;6.90;1.00;;;;;;4977278;28;20149;-84
2023/03/11 12:15:18;;;;;;;6.72;1.67;;;7.10;20.00;;;;;;4977072;28;20043;-84
2023/03/11 12:17:46;;;;;;;3.25;1.33;;;7.50;99.90;;;;;;4976754;28;20035;-84
2023/03/11 12:20:29;;;;;;;2.83;1.45;;;7.40;1.00;;;;;;4977114;28;20053;-85
2023/03/11 12:23:17;;;;;;;8.00;1.90;;;7.70;45.50;;;;;;4980421;28;20118;-85
2023/03/11 12:36:22;;;;;;;3.88;1.40;;;7.80;1.00;;;;;;5068438;27;20402;-83
2023/03/11 12:38:49;;;;;;;6.97;2.20;;;7.30;99.90;;;;;;5051302;28;20057;-83
2023/03/11 12:41:14;;;;;;;5.38;1.50;;;7.50;99.90;;;;;;5069395;28;20905;-83
2023/03/11 12:43:40;;;;;;;5.07;1.63;;;7.30;99.90;;;;;;5081006;28;20037;-83
2023/03/11 12:46:06;;;;;;;6.18;2.17;;;7.20;90.00;;;;;;5050088;28;20386;-84
2023/03/11 12:48:44;;;;;;;3.72;1.25;;;7.30;99.90;;;;;;5050642;28;20032;-83
2023/03/11 12:51:25;;;;;;;4.38;1.05;;;7.00;1.00;;;;;;5097320;28;20143;-83
2023/03/11 12:53:52;;;;;;;5.18;1.02;;;7.10;1.00;;;;;;5051218;28;20078;-83
2023/03/11 12:56:42;;;;;;;12.90;1.88;;;7.30;1.00;;;;;;5052033;28;20119;-82
2023/03/11 12:59:40;;;;;;;5.50;1.30;;;7.30;87.20;;;;;;5007620;28;20496;-82
2023/03/11 13:02:09;;;;;;;3.30;1.20;;;7.10;99.90;;;;;;4961921;28;20111;-82
2023/03/11 13:05:09;;;;;;;8.30;1.45;;;7.10;99.90;;;;;;5010200;28;20295;-82
2023/03/11 13:07:56;;;;;;;2.53;1.30;;;7.40;99.90;;;;;;5003062;28;20037;-82
2023/03/11 13:10:44;;;;;;;4.13;1.15;;;7.60;1.00;;;;;;5016640;28;20061;-82
2023/03/11 13:13:32;;;;;;;5.45;1.20;;;7.10;88.40;;;;;;5029709;28;20041;-83
2023/03/11 13:16:18;;;;;;;4.88;1.05;;;7.40;99.90;;;;;;5007655;28;20447;-82
2023/03/11 13:18:47;;;;;;;4.53;1.38;;;7.60;99.90;;;;;;4985624;28;20781;-83